createdAt,value
2022-10-18T00:02:00.702Z,8.50
2022-10-18T00:04:03.984Z,8.80
2022-10-18T00:06:09.058Z,8.37
2022-10-18T00:08:11.759Z,8.53
2022-10-18T00:10:14.410Z,9.57
2022-10-18T00:12:18.915Z,9.43
2022-10-18T00:14:21.654Z,9.10
2022-10-18T00:16:24.468Z,9.13
2022-10-18T00:18:27.279Z,9.50
2022-10-18T00:20:30.332Z,9.03
2022-10-18T00:22:33.415Z,9.57
2022-10-18T00:24:36.511Z,9.43
2022-10-18T00:26:39.157Z,9.20
2022-10-18T00:28:43.384Z,8.13
2022-10-18T00:30:46.152Z,9.07
2022-10-18T00:32:48.923Z,9.93
2022-10-18T00:34:53.136Z,9.40
2022-10-18T00:36:56.083Z,9.00
2022-10-18T00:38:58.804Z,9.57
2022-10-18T00:41:01.439Z,9.47
2022-10-18T00:43:04.557Z,9.07
2022-10-18T00:45:15.837Z,9.63
2022-10-18T00:47:18.513Z,9.43
2022-10-18T00:49:22.854Z,10.17
2022-10-18T00:51:27.990Z,9.93
2022-10-18T00:53:30.646Z,8.90
2022-10-18T00:55:33.619Z,9.83
2022-10-18T00:57:36.250Z,9.77
2022-10-18T00:59:39.229Z,9.33
2022-10-18T01:01:43.543Z,10.00
2022-10-18T01:03:46.256Z,10.23
2022-10-18T01:05:49.069Z,9.60
2022-10-18T01:08:00.210Z,10.00
2022-10-18T01:10:07.983Z,9.70
2022-10-18T01:12:16.876Z,9.00
2022-10-18T01:14:27.937Z,10.10
2022-10-18T01:16:33.942Z,10.33
2022-10-18T01:18:42.469Z,10.50
2022-10-18T01:21:00.661Z,9.03
2022-10-18T01:23:06.146Z,10.23
2022-10-18T01:25:18.061Z,9.57
2022-10-18T01:27:34.111Z,10.00
2022-10-18T01:29:43.112Z,9.83
2022-10-18T01:31:47.698Z,10.13
2022-10-18T01:33:51.825Z,9.73
2022-10-18T01:35:58.585Z,8.83
2022-10-18T01:38:02.630Z,10.17
2022-10-18T01:40:06.633Z,9.63
2022-10-18T01:42:10.993Z,10.00
2022-10-18T01:44:16.334Z,9.57
2022-10-18T01:46:19.867Z,9.33
2022-10-18T01:48:23.961Z,10.20
2022-10-18T01:50:29.924Z,9.43
2022-10-18T01:52:33.102Z,9.33
2022-10-18T01:54:36.876Z,10.30
2022-10-18T01:56:43.750Z,9.20
2022-10-18T01:58:50.921Z,10.07
2022-10-18T02:00:57.519Z,9.87
2022-10-18T02:03:02.967Z,9.17
2022-10-18T02:05:10.176Z,9.67
2022-10-18T02:07:17.771Z,9.10
2022-10-18T02:09:21.526Z,9.27
2022-10-18T02:11:24.251Z,10.10
2022-10-18T02:13:30.046Z,8.63
2022-10-18T02:15:34.560Z,8.90
2022-10-18T02:17:37.640Z,9.67
2022-10-18T02:19:41.459Z,9.00
2022-10-18T02:21:45.464Z,9.83
2022-10-18T02:23:48.237Z,8.87
2022-10-18T02:25:51.225Z,9.73
2022-10-18T02:27:53.938Z,9.33
2022-10-18T02:29:56.578Z,9.20
2022-10-18T02:32:02.237Z,9.63
2022-10-18T02:34:07.588Z,10.67
2022-10-18T02:36:12.541Z,9.40
2022-10-18T02:38:16.649Z,8.47
2022-10-18T02:40:19.426Z,10.17
2022-10-18T02:42:22.747Z,9.73
2022-10-18T02:44:25.597Z,10.30
2022-10-18T02:46:28.776Z,9.80
2022-10-18T02:48:31.516Z,8.63
2022-10-18T02:50:34.813Z,8.77
2022-10-18T02:52:37.618Z,8.90
2022-10-18T02:54:41.603Z,10.00
2022-10-18T02:56:44.228Z,9.20
2022-10-18T02:58:47.405Z,9.00
2022-10-18T03:00:50.670Z,9.63
2022-10-18T03:02:53.931Z,9.20
2022-10-18T03:04:56.581Z,9.57
2022-10-18T03:06:59.641Z,9.00
2022-10-18T03:09:03.037Z,8.63
2022-10-18T03:11:07.203Z,9.17
2022-10-18T03:13:09.874Z,8.77
2022-10-18T03:15:13.013Z,10.57
2022-10-18T03:17:15.641Z,9.33
2022-10-18T03:19:18.387Z,9.53
2022-10-18T03:21:21.031Z,8.87
2022-10-18T03:23:25.084Z,8.83
2022-10-18T03:25:27.720Z,10.53
2022-10-18T03:27:32.015Z,9.40
2022-10-18T03:29:34.810Z,9.30
2022-10-18T03:31:40.196Z,9.73
2022-10-18T03:33:42.791Z,9.60
2022-10-18T03:35:45.760Z,9.63
2022-10-18T03:37:48.407Z,9.63
2022-10-18T03:39:51.419Z,9.60
2022-10-18T03:41:54.194Z,9.10
2022-10-18T03:43:58.139Z,8.27
2022-10-18T03:46:01.009Z,9.60
2022-10-18T03:48:04.151Z,9.17
2022-10-18T03:50:07.103Z,8.63
2022-10-18T03:52:09.772Z,8.30
2022-10-18T03:54:12.430Z,9.30
2022-10-18T03:56:15.538Z,9.77
2022-10-18T03:58:18.196Z,9.07
2022-10-18T04:00:22.775Z,8.93
2022-10-18T04:02:26.541Z,9.27
2022-10-18T04:04:29.188Z,8.53
2022-10-18T04:06:31.889Z,8.70
2022-10-18T04:08:34.566Z,8.70
2022-10-18T04:10:38.346Z,9.80
2022-10-18T04:12:41.046Z,8.93
2022-10-18T04:14:43.715Z,7.83
2022-10-18T04:16:47.677Z,8.67
2022-10-18T04:18:50.346Z,8.87
2022-10-18T04:20:53.019Z,8.60
2022-10-18T04:22:57.632Z,8.53
2022-10-18T04:25:00.351Z,8.63
2022-10-18T04:27:02.994Z,9.60
2022-10-18T04:29:05.799Z,8.60
2022-10-18T04:31:08.502Z,8.17
2022-10-18T04:33:12.465Z,8.67
2022-10-18T04:35:15.120Z,8.27
2022-10-18T04:37:18.335Z,9.07
2022-10-18T04:39:21.162Z,8.87
2022-10-18T04:41:23.775Z,8.33
2022-10-18T04:43:26.433Z,7.83
2022-10-18T04:45:29.450Z,7.47
2022-10-18T04:47:32.358Z,8.30
2022-10-18T04:49:36.678Z,7.93
2022-10-18T04:51:39.348Z,7.63
2022-10-18T04:53:42.375Z,8.87
2022-10-18T04:55:46.211Z,8.07
2022-10-18T04:57:48.863Z,8.20
2022-10-18T04:59:51.540Z,7.83
2022-10-18T05:01:54.824Z,7.47
2022-10-18T05:03:57.591Z,8.00
2022-10-18T05:06:03.114Z,7.70
2022-10-18T05:08:06.301Z,7.93
2022-10-18T05:10:09.817Z,9.33
2022-10-18T05:12:12.433Z,8.00
2022-10-18T05:14:17.943Z,7.57
2022-10-18T05:16:21.035Z,7.97
2022-10-18T05:18:23.640Z,8.20
2022-10-18T05:20:26.346Z,7.43
2022-10-18T05:22:30.515Z,7.97
2022-10-18T05:24:33.717Z,9.90
2022-10-18T05:26:36.364Z,8.93
2022-10-18T05:28:40.490Z,7.70
2022-10-18T05:30:43.928Z,7.57
2022-10-18T05:32:46.953Z,7.13
2022-10-18T05:34:49.642Z,6.17
2022-10-18T05:36:52.310Z,7.90
2022-10-18T05:38:58.622Z,7.00
2022-10-18T05:41:05.347Z,7.20
2022-10-18T05:43:08.228Z,7.07
2022-10-18T05:45:11.273Z,6.97
2022-10-18T05:47:13.958Z,7.90
2022-10-18T05:49:17.058Z,7.30
2022-10-18T05:51:19.800Z,7.53
2022-10-18T05:53:36.240Z,8.00
2022-10-18T05:55:41.278Z,6.93
2022-10-18T05:57:44.036Z,6.90
2022-10-18T05:59:46.791Z,7.60
2022-10-18T06:01:49.802Z,8.03
2022-10-18T06:03:52.478Z,6.73
2022-10-18T06:05:59.353Z,7.77
2022-10-18T06:08:03.293Z,7.43
2022-10-18T06:10:08.669Z,7.33
2022-10-18T06:12:12.656Z,7.10
2022-10-18T06:14:15.312Z,6.80
2022-10-18T06:16:19.389Z,6.87
2022-10-18T06:18:22.118Z,7.70
2022-10-18T06:20:24.750Z,7.10
2022-10-18T06:22:27.471Z,7.00
2022-10-18T06:24:30.621Z,6.60
2022-10-18T06:26:33.302Z,6.23
2022-10-18T06:28:38.517Z,9.50
2022-10-18T06:30:41.523Z,6.90
2022-10-18T06:32:56.209Z,6.40
2022-10-18T06:34:58.822Z,8.73
2022-10-18T06:37:01.560Z,6.73
2022-10-18T06:39:04.290Z,6.50
2022-10-18T06:41:07.579Z,6.17
2022-10-18T06:43:20.553Z,6.60
2022-10-18T06:45:25.077Z,6.33
2022-10-18T06:47:27.772Z,7.00
2022-10-18T06:49:30.447Z,6.40
2022-10-18T06:51:33.125Z,6.53
2022-10-18T06:53:43.798Z,9.87
2022-10-18T06:55:51.652Z,6.10
2022-10-18T06:57:54.332Z,6.10
2022-10-18T06:59:57.075Z,9.50
2022-10-18T07:02:02.454Z,6.63
2022-10-18T07:04:05.500Z,7.83
2022-10-18T07:06:09.450Z,7.43
2022-10-18T07:08:12.109Z,8.57
2022-10-18T07:10:14.858Z,9.90
2022-10-18T07:12:17.806Z,8.07
2022-10-18T07:14:20.444Z,8.90
2022-10-18T07:16:23.536Z,10.20
2022-10-18T07:18:27.518Z,8.73
2022-10-18T07:20:30.188Z,8.33
2022-10-18T07:22:34.081Z,9.83
2022-10-18T07:24:37.151Z,10.17
2022-10-18T07:26:40.218Z,7.00
2022-10-18T07:28:42.952Z,8.00
2022-10-18T07:30:45.636Z,8.97
2022-10-18T07:32:48.898Z,9.83
2022-10-18T07:34:55.316Z,8.90
2022-10-18T07:36:58.008Z,8.20
2022-10-18T07:39:00.785Z,9.60
2022-10-18T07:41:06.267Z,8.77
2022-10-18T07:43:11.463Z,7.97
2022-10-18T07:45:14.926Z,8.53
2022-10-18T07:47:18.218Z,8.40
2022-10-18T07:49:21.341Z,10.20
2022-10-18T07:51:25.350Z,10.27
2022-10-18T07:53:28.190Z,11.17
2022-10-18T07:55:30.842Z,13.00
2022-10-18T07:57:34.931Z,11.47
2022-10-18T07:59:38.784Z,10.93
2022-10-18T08:01:42.893Z,14.03
2022-10-18T08:03:47.115Z,11.83
2022-10-18T08:05:54.149Z,11.43
2022-10-18T08:07:58.179Z,12.33
2022-10-18T08:10:00.967Z,13.23
2022-10-18T08:12:03.653Z,12.13
2022-10-18T08:14:06.757Z,12.50
2022-10-18T08:16:10.811Z,13.87
2022-10-18T08:18:13.900Z,11.97
2022-10-18T08:20:30.307Z,12.53
2022-10-18T08:22:34.643Z,13.00
2022-10-18T08:24:39.106Z,12.47
2022-10-18T08:26:44.280Z,12.30
2022-10-18T08:29:10.247Z,11.73
2022-10-18T08:31:17.687Z,12.60
2022-10-18T08:33:22.837Z,12.53
2022-10-18T08:35:27.523Z,11.30
2022-10-18T08:37:33.861Z,14.00
2022-10-18T08:39:41.254Z,12.40
2022-10-18T08:41:54.896Z,12.70
2022-10-18T08:44:01.107Z,12.70
2022-10-18T08:46:06.522Z,13.20
2022-10-18T08:48:12.973Z,13.93
2022-10-18T08:50:19.156Z,11.73
2022-10-18T08:52:29.568Z,14.50
2022-10-18T08:54:37.139Z,13.83
2022-10-18T08:56:41.927Z,14.10
2022-10-18T08:58:46.073Z,12.97
2022-10-18T09:00:54.335Z,13.97
2022-10-18T09:03:08.493Z,13.57
2022-10-18T09:05:18.577Z,13.70
2022-10-18T09:07:29.608Z,12.50
2022-10-18T09:09:36.409Z,12.83
2022-10-18T09:11:48.492Z,12.33
2022-10-18T09:14:04.216Z,13.10
2022-10-18T09:16:09.192Z,11.60
2022-10-18T09:18:20.138Z,15.37
2022-10-18T09:20:24.526Z,11.43
2022-10-18T09:22:34.333Z,12.43
2022-10-18T09:24:40.083Z,14.60
2022-10-18T09:26:46.968Z,12.90
2022-10-18T09:28:57.680Z,15.27
2022-10-18T09:31:01.852Z,12.47
2022-10-18T09:33:10.525Z,12.00
2022-10-18T09:35:14.619Z,14.93
2022-10-18T09:37:19.107Z,13.87
2022-10-18T09:39:23.718Z,14.40
2022-10-18T09:41:27.901Z,15.37
2022-10-18T09:43:39.796Z,11.73
2022-10-18T09:45:43.486Z,11.77
2022-10-18T09:47:47.520Z,12.33
2022-10-18T09:49:52.119Z,12.47
2022-10-18T09:51:57.135Z,17.13
2022-10-18T09:54:06.900Z,11.20
2022-10-18T09:56:11.184Z,11.20
2022-10-18T09:58:13.823Z,10.97
2022-10-18T10:00:20.038Z,10.47
2022-10-18T10:02:23.719Z,13.03
2022-10-18T10:04:26.475Z,12.80
2022-10-18T10:06:29.617Z,11.93
2022-10-18T10:08:34.281Z,12.43
2022-10-18T10:10:37.322Z,11.60
2022-10-18T10:12:40.689Z,12.07
2022-10-18T10:14:45.159Z,12.40
2022-10-18T10:16:51.773Z,14.13
2022-10-18T10:18:54.699Z,12.57
2022-10-18T10:21:01.690Z,12.23
2022-10-18T10:23:07.538Z,11.97
2022-10-18T10:25:21.627Z,12.40
2022-10-18T10:27:29.126Z,13.43
2022-10-18T10:29:49.410Z,12.03
2022-10-18T10:31:56.747Z,12.00
2022-10-18T10:34:00.903Z,12.60
2022-10-18T10:36:04.451Z,12.30
2022-10-18T10:38:07.726Z,14.40
2022-10-18T10:40:20.485Z,12.80
2022-10-18T10:42:26.042Z,12.60
2022-10-18T10:44:32.909Z,11.60
2022-10-18T10:46:39.924Z,11.30
2022-10-18T10:48:49.847Z,12.77
2022-10-18T10:50:59.169Z,11.53
2022-10-18T10:53:02.464Z,11.80
2022-10-18T10:55:23.516Z,10.63
2022-10-18T10:57:29.669Z,12.17
2022-10-18T10:59:39.172Z,17.00
2022-10-18T11:01:43.046Z,13.70
2022-10-18T11:03:48.401Z,12.93
2022-10-18T11:05:53.000Z,12.67
2022-10-18T11:07:56.414Z,14.13
2022-10-18T11:10:01.192Z,13.13
2022-10-18T11:12:06.953Z,14.47
2022-10-18T11:14:25.393Z,13.00
2022-10-18T11:16:33.573Z,15.80
2022-10-18T11:18:41.499Z,17.47
2022-10-18T11:20:48.391Z,12.47
2022-10-18T11:22:59.754Z,12.50
2022-10-18T11:25:03.606Z,12.20
2022-10-18T11:27:09.492Z,13.23
2022-10-18T11:29:22.896Z,12.47
2022-10-18T11:31:32.163Z,16.07
2022-10-18T11:34:07.705Z,11.73
2022-10-18T11:36:10.176Z,12.63
2022-10-18T11:38:22.810Z,12.03
2022-10-18T11:40:34.983Z,14.37
2022-10-18T11:42:40.819Z,12.73
2022-10-18T11:44:46.348Z,11.93
2022-10-18T11:46:55.959Z,11.80
2022-10-18T11:49:09.137Z,11.73
2022-10-18T11:51:16.529Z,12.20
2022-10-18T11:53:21.767Z,11.47
2022-10-18T11:55:33.170Z,11.60
2022-10-18T11:57:45.802Z,12.47
2022-10-18T11:59:52.916Z,12.03
2022-10-18T12:02:01.631Z,11.60
2022-10-18T12:04:05.953Z,11.83
2022-10-18T12:06:13.368Z,12.20
2022-10-18T12:08:16.727Z,11.63
2022-10-18T12:10:27.249Z,11.67
2022-10-18T12:12:43.257Z,11.77
2022-10-18T12:14:47.695Z,14.80
2022-10-18T12:16:53.613Z,11.83
2022-10-18T12:19:03.060Z,12.27
2022-10-18T12:21:05.854Z,17.13
2022-10-18T12:23:11.379Z,12.50
2022-10-18T12:25:15.185Z,11.97
2022-10-18T12:27:18.611Z,13.10
2022-10-18T12:29:22.982Z,11.97
2022-10-18T12:31:30.108Z,12.20
2022-10-18T12:33:36.347Z,14.20
2022-10-18T12:35:57.492Z,12.77
2022-10-18T12:38:08.463Z,12.97
2022-10-18T12:40:18.517Z,12.90
2022-10-18T12:42:25.043Z,12.33
2022-10-18T12:44:31.355Z,12.77
2022-10-18T12:46:48.392Z,13.47
2022-10-18T12:49:00.811Z,15.70
2022-10-18T12:51:06.711Z,12.10
2022-10-18T12:53:18.456Z,13.23
2022-10-18T12:55:31.828Z,14.53
2022-10-18T12:57:58.202Z,13.03
2022-10-18T13:00:01.256Z,13.20
2022-10-18T13:02:16.054Z,14.67
2022-10-18T13:04:34.799Z,14.27
2022-10-18T13:07:04.517Z,14.20
2022-10-18T13:09:17.662Z,13.40
2022-10-18T13:11:36.873Z,14.40
2022-10-18T13:13:46.586Z,15.80
2022-10-18T13:15:49.984Z,13.73
2022-10-18T13:17:54.610Z,13.63
2022-10-18T13:20:24.579Z,14.50
2022-10-18T13:22:34.631Z,14.63
2022-10-18T13:24:38.809Z,14.57
2022-10-18T13:26:51.141Z,16.37
2022-10-18T13:29:04.097Z,15.77
2022-10-18T13:31:13.389Z,14.10
2022-10-18T13:33:30.088Z,14.10
2022-10-18T13:35:45.177Z,13.30
2022-10-18T13:37:58.709Z,12.50
2022-10-18T13:40:15.586Z,13.83
2022-10-18T13:42:29.449Z,14.60
2022-10-18T13:44:38.476Z,13.63
2022-10-18T13:47:08.239Z,14.53
2022-10-18T13:49:22.799Z,13.80
2022-10-18T13:51:41.415Z,13.70
2022-10-18T13:53:48.423Z,15.90
2022-10-18T13:55:59.855Z,13.10
2022-10-18T13:58:07.134Z,14.17
2022-10-18T14:00:20.615Z,13.47
2022-10-18T14:02:51.474Z,13.27
2022-10-18T14:05:23.236Z,13.40
2022-10-18T14:07:26.683Z,13.40
2022-10-18T14:09:52.421Z,13.90
2022-10-18T14:12:00.739Z,13.60
2022-10-18T14:14:09.767Z,16.20
2022-10-18T14:16:23.226Z,14.07
2022-10-18T14:18:30.034Z,13.40
2022-10-18T14:20:49.086Z,13.33
2022-10-18T14:22:54.883Z,15.10
2022-10-18T14:24:59.854Z,12.30
2022-10-18T14:27:14.044Z,14.03
2022-10-18T14:29:20.196Z,15.63
2022-10-18T14:31:25.743Z,12.57
2022-10-18T14:33:31.414Z,13.50
2022-10-18T14:35:35.350Z,13.00
2022-10-18T14:37:38.325Z,13.17
2022-10-18T14:39:43.833Z,12.60
2022-10-18T14:41:51.414Z,13.43
2022-10-18T14:43:54.838Z,13.00
2022-10-18T14:46:08.972Z,11.23
2022-10-18T14:48:16.057Z,12.50
2022-10-18T14:50:22.306Z,15.33
2022-10-18T14:52:26.671Z,12.03
2022-10-18T14:54:32.136Z,13.63
2022-10-18T14:56:38.350Z,12.87
2022-10-18T14:58:41.790Z,12.13
2022-10-18T15:00:47.732Z,12.60
2022-10-18T15:02:52.830Z,13.10
2022-10-18T15:04:57.196Z,14.20
2022-10-18T15:07:04.417Z,12.53
2022-10-18T15:09:07.087Z,12.50
2022-10-18T15:11:13.333Z,11.37
2022-10-18T15:13:17.444Z,12.00
2022-10-18T15:15:21.971Z,11.67
2022-10-18T15:17:26.476Z,11.70
2022-10-18T15:19:32.584Z,11.07
2022-10-18T15:21:36.293Z,13.57
2022-10-18T15:23:39.215Z,11.57
2022-10-18T15:25:42.256Z,11.87
2022-10-18T15:27:47.182Z,11.17
2022-10-18T15:29:49.911Z,11.37
2022-10-18T15:31:52.618Z,11.73
2022-10-18T15:33:55.900Z,11.23
2022-10-18T15:36:23.205Z,10.60
2022-10-18T15:38:27.481Z,11.40
2022-10-18T15:40:37.667Z,10.33
2022-10-18T15:42:44.683Z,12.53
2022-10-18T15:44:53.336Z,10.20
2022-10-18T15:46:57.452Z,10.80
2022-10-18T15:49:38.440Z,10.40
2022-10-18T15:51:49.291Z,10.97
2022-10-18T15:53:52.914Z,13.00
2022-10-18T15:55:56.261Z,11.20
2022-10-18T15:58:03.922Z,12.23
2022-10-18T16:00:16.473Z,11.73
2022-10-18T16:02:19.328Z,12.50
2022-10-18T16:04:24.012Z,11.63
2022-10-18T16:06:26.896Z,11.87
2022-10-18T16:08:32.374Z,11.03
2022-10-18T16:10:35.074Z,11.60
2022-10-18T16:12:37.812Z,12.17
2022-10-18T16:14:40.556Z,10.60
2022-10-18T16:16:43.644Z,10.80
2022-10-18T16:18:46.354Z,11.70
2022-10-18T16:20:49.107Z,11.03
2022-10-18T16:22:51.801Z,11.67
2022-10-18T16:24:58.484Z,11.97
2022-10-18T16:27:01.155Z,12.00
2022-10-18T16:29:04.071Z,12.17
2022-10-18T16:31:07.231Z,11.37
2022-10-18T16:33:10.006Z,12.13
2022-10-18T16:35:13.403Z,11.63
2022-10-18T16:37:18.000Z,12.73
2022-10-18T16:39:23.787Z,10.70
2022-10-18T16:41:29.891Z,11.00
2022-10-18T16:43:32.903Z,10.60
2022-10-18T16:45:38.819Z,10.53
2022-10-18T16:47:43.228Z,11.90
2022-10-18T16:49:47.321Z,10.13
2022-10-18T16:51:49.986Z,10.70
2022-10-18T16:53:53.392Z,10.67
2022-10-18T16:55:59.454Z,10.00
2022-10-18T16:58:03.510Z,10.37
2022-10-18T17:00:06.758Z,10.10
2022-10-18T17:02:12.484Z,11.30
2022-10-18T17:04:15.862Z,10.57
2022-10-18T17:06:20.591Z,12.70
2022-10-18T17:08:24.233Z,11.40
2022-10-18T17:10:30.633Z,10.20
2022-10-18T17:12:33.884Z,10.37
2022-10-18T17:14:41.769Z,10.90
2022-10-18T17:16:53.097Z,10.33
2022-10-18T17:19:00.526Z,10.73
2022-10-18T17:21:03.363Z,10.23
2022-10-18T17:23:06.352Z,11.83
2022-10-18T17:25:12.084Z,9.80
2022-10-18T17:27:16.612Z,10.00
2022-10-18T17:29:23.032Z,9.50
2022-10-18T17:31:27.003Z,9.50
2022-10-18T17:33:30.098Z,11.07
2022-10-18T17:35:32.767Z,10.33
2022-10-18T17:37:35.632Z,9.97
2022-10-18T17:39:38.608Z,9.20
2022-10-18T17:41:41.642Z,9.90
2022-10-18T17:43:44.586Z,10.00
2022-10-18T17:45:49.389Z,9.70
2022-10-18T17:47:54.390Z,8.60
2022-10-18T17:49:57.056Z,9.47
2022-10-18T17:52:04.534Z,9.77
2022-10-18T17:54:09.790Z,8.57
2022-10-18T17:56:13.597Z,10.63
2022-10-18T17:58:16.279Z,9.13
2022-10-18T18:00:18.949Z,10.63
2022-10-18T18:02:21.696Z,9.90
2022-10-18T18:04:26.214Z,10.50
2022-10-18T18:06:31.222Z,10.67
2022-10-18T18:08:33.877Z,10.00
2022-10-18T18:10:36.625Z,10.47
2022-10-18T18:12:39.662Z,10.23
2022-10-18T18:14:42.321Z,10.50
2022-10-18T18:16:46.250Z,10.10
2022-10-18T18:18:50.726Z,10.53
2022-10-18T18:20:55.414Z,11.63
2022-10-18T18:22:58.179Z,11.20
2022-10-18T18:25:00.885Z,10.50
2022-10-18T18:27:03.558Z,9.87
2022-10-18T18:29:06.995Z,10.80
2022-10-18T18:31:10.079Z,11.03
2022-10-18T18:33:12.749Z,11.23
2022-10-18T18:35:15.534Z,10.83
2022-10-18T18:37:19.435Z,11.07
2022-10-18T18:39:23.032Z,11.40
2022-10-18T18:41:26.322Z,10.70
2022-10-18T18:43:28.966Z,12.57
2022-10-18T18:45:31.644Z,11.93
2022-10-18T18:47:35.491Z,12.37
2022-10-18T18:49:38.554Z,12.63
2022-10-18T18:51:41.527Z,11.50
2022-10-18T18:53:45.913Z,13.87
2022-10-18T18:55:50.685Z,12.07
2022-10-18T18:58:00.124Z,12.53
2022-10-18T19:00:02.940Z,11.47
2022-10-18T19:02:05.589Z,13.37
2022-10-18T19:04:11.126Z,12.07
2022-10-18T19:06:15.776Z,12.43
2022-10-18T19:08:18.507Z,11.53
2022-10-18T19:10:22.423Z,11.87
2022-10-18T19:12:25.098Z,11.73
2022-10-18T19:14:28.998Z,11.20
2022-10-18T19:16:32.188Z,14.70
2022-10-18T19:18:35.642Z,13.63
2022-10-18T19:20:38.268Z,14.30
2022-10-18T19:22:41.383Z,13.00
2022-10-18T19:24:44.022Z,13.00
2022-10-18T19:26:48.806Z,12.40
2022-10-18T19:28:51.591Z,14.50
2022-10-18T19:30:56.029Z,12.40
2022-10-18T19:33:04.200Z,12.03
2022-10-18T19:35:07.084Z,12.47
2022-10-18T19:37:16.218Z,12.70
2022-10-18T19:39:19.689Z,12.53
2022-10-18T19:43:32.677Z,13.20
2022-10-18T19:45:35.315Z,12.13
2022-10-18T19:47:41.173Z,12.20
2022-10-18T19:49:44.191Z,12.93
2022-10-18T19:51:48.336Z,13.83
2022-10-18T19:53:50.977Z,12.30
2022-10-18T19:55:58.573Z,15.23
2022-10-18T19:58:04.279Z,13.97
2022-10-18T20:00:10.855Z,13.97
2022-10-18T20:02:15.028Z,13.43
2022-10-18T20:04:17.745Z,14.77
2022-10-18T20:06:23.394Z,14.20
2022-10-18T20:08:26.517Z,13.27
2022-10-18T20:10:30.197Z,13.93
2022-10-18T20:12:36.055Z,14.50
2022-10-18T20:14:39.277Z,14.00
2022-10-18T20:16:43.205Z,14.60
2022-10-18T20:18:45.953Z,13.97
2022-10-18T20:20:49.145Z,17.03
2022-10-18T20:22:53.232Z,15.10
2022-10-18T20:24:57.805Z,17.13
2022-10-18T20:27:00.426Z,15.30
2022-10-18T20:29:03.281Z,16.80
2022-10-18T20:31:07.299Z,15.43
2022-10-18T20:33:12.399Z,17.67
2022-10-18T20:35:15.203Z,16.67
2022-10-18T20:37:17.845Z,16.97
2022-10-18T20:39:33.551Z,17.77
2022-10-18T20:41:37.981Z,16.20
2022-10-18T20:43:41.979Z,17.93
2022-10-18T20:45:46.175Z,17.23
2022-10-18T20:47:51.297Z,17.80
2022-10-18T20:49:55.215Z,17.53
2022-10-18T20:51:57.906Z,19.47
2022-10-18T20:54:01.116Z,17.67
2022-10-18T20:56:05.311Z,18.90
2022-10-18T20:58:08.064Z,17.90
2022-10-18T21:00:12.818Z,17.87
2022-10-18T21:02:15.898Z,18.50
2022-10-18T21:04:18.861Z,17.57
2022-10-18T21:06:23.879Z,19.97
2022-10-18T21:08:26.575Z,18.90
2022-10-18T21:10:29.988Z,19.27
2022-10-18T21:12:34.993Z,19.70
2022-10-18T21:14:38.086Z,19.40
2022-10-18T21:16:41.095Z,19.30
2022-10-18T21:18:44.296Z,22.30
2022-10-18T21:20:47.034Z,20.20
2022-10-18T21:22:53.990Z,20.07
2022-10-18T21:24:56.679Z,20.13
2022-10-18T21:27:01.045Z,21.17
2022-10-18T21:29:04.152Z,22.13
2022-10-18T21:31:10.759Z,23.53
2022-10-18T21:33:13.552Z,21.90
2022-10-18T21:35:16.204Z,22.43
2022-10-18T21:37:18.924Z,23.63
2022-10-18T21:41:31.555Z,22.27
2022-10-18T21:43:35.346Z,22.10
2022-10-18T21:45:42.935Z,22.33
2022-10-18T21:47:47.449Z,22.30
2022-10-18T21:49:50.107Z,24.93
2022-10-18T21:51:52.948Z,22.43
2022-10-18T21:53:56.548Z,22.47
2022-10-18T21:56:06.823Z,22.87
2022-10-18T21:58:09.571Z,22.47
2022-10-18T22:00:13.514Z,23.00
2022-10-18T22:02:16.636Z,23.30
2022-10-18T22:04:20.816Z,22.73
2022-10-18T22:06:23.636Z,20.70
2022-10-18T22:08:26.473Z,22.07
2022-10-18T22:10:29.217Z,22.07
2022-10-18T22:12:33.635Z,22.07
2022-10-18T22:14:36.294Z,22.97
2022-10-18T22:16:38.994Z,21.50
2022-10-18T22:18:51.256Z,22.37
2022-10-18T22:20:54.929Z,22.63
2022-10-18T22:22:57.625Z,22.60
2022-10-18T22:25:00.259Z,21.90
2022-10-18T22:27:03.364Z,22.03
2022-10-18T22:29:08.304Z,21.73
2022-10-18T22:31:14.972Z,20.43
2022-10-18T22:33:17.629Z,23.10
2022-10-18T22:35:20.660Z,23.50
2022-10-18T22:37:23.300Z,23.53
2022-10-18T22:39:26.131Z,21.97
2022-10-18T22:41:28.913Z,24.90
2022-10-18T22:43:32.052Z,20.90
2022-10-18T22:45:35.963Z,23.50
2022-10-18T22:47:38.653Z,22.30
2022-10-18T22:49:41.397Z,23.53
2022-10-18T22:51:44.517Z,21.93
2022-10-18T22:53:47.208Z,22.83
2022-10-18T22:55:50.033Z,23.73
2022-10-18T22:57:52.685Z,24.10
2022-10-18T22:59:55.789Z,23.97
2022-10-18T23:02:00.566Z,23.27
2022-10-18T23:04:03.191Z,23.40
2022-10-18T23:06:06.027Z,23.80
2022-10-18T23:08:10.328Z,24.80
2022-10-18T23:10:13.340Z,25.07
2022-10-18T23:12:16.251Z,24.17
2022-10-18T23:14:19.166Z,24.07
2022-10-18T23:16:22.227Z,24.03
2022-10-18T23:18:26.269Z,26.53
2022-10-18T23:20:29.013Z,24.70
2022-10-18T23:22:32.027Z,25.87
2022-10-18T23:24:35.694Z,25.17
2022-10-18T23:26:38.666Z,26.00
2022-10-18T23:28:42.570Z,25.30
2022-10-18T23:30:45.989Z,27.43
2022-10-18T23:32:49.638Z,28.20
2022-10-18T23:34:54.260Z,27.37
2022-10-18T23:36:56.953Z,27.47
2022-10-18T23:38:59.627Z,26.70
2022-10-18T23:41:03.747Z,27.70
2022-10-18T23:43:06.435Z,28.43
2022-10-18T23:45:09.915Z,28.63
2022-10-18T23:47:12.612Z,30.53
2022-10-18T23:49:16.703Z,28.57
2022-10-18T23:51:20.649Z,28.13
2022-10-18T23:53:23.406Z,29.23
2022-10-18T23:55:26.150Z,30.23
2022-10-18T23:57:29.214Z,31.20
2022-10-18T23:59:32.048Z,29.43
